Αναφορές METAR Αεροδρομίων

 

LGTS - THESSALONIKI - GREECE
Ενημερώθηκε: 26/05/2024 23:50
Αραιές Νεφώσεις
Αραιές Νεφώσεις
 Ανεμος από ΑΝΑ
Ανεμος: ΑΝΑ 9 km/h
Θερμοκρασία: 18°C
Σημείο Δρόσου: 12°C
Υγρασία: 68%
Βαρόμετρο: 1017 hPa
Clouds: Αραιές Νεφώσεις
Visibility: 10 km
Cloud details: Αραιές Νεφώσεις 762 m
2024/05/26 20:50 LGTS 262050Z 11005KT 9999 FEW025 18/12 Q1017 NOSIG
LGLR - LARTISA - GREECE
Ενημερώθηκε: 26/05/2024 23:50
Αραιές Νεφώσεις
Αραιές Νεφώσεις
 Ανεμος από calm
Ανεμος: Απνοια
Θερμοκρασία: 18°C
Σημείο Δρόσου: 9°C
Υγρασία: 56%
Βαρόμετρο: 1017 hPa
Clouds: Αραιές Νεφώσεις
Visibility: 10 km
Cloud details: Αραιές Νεφώσεις 914 m
2024/05/26 20:50 LGLR 262050Z 00000KT 9999 FEW030 18/09 Q1017 RMK FEW080 FEW180 BLU
 
LGKZ - KOZANI - GREECE
Ενημερώθηκε: 26/05/2024 23:50

 Ανεμος από Β
Ανεμος: Β 7 km/h
Θερμοκρασία: 12°C
Σημείο Δρόσου: 5°C
Υγρασία: 63%
Βαρόμετρο: 1019 hPa
2024/05/26 20:50 LGKZ 262050Z AUTO 36004KT //// // ////// 12/05 Q1019 RE//
LGKV - KAVALA - GREECE
Ενημερώθηκε: 26/05/2024 22:50
Αραιές Νεφώσεις
Αραιές Νεφώσεις
 Ανεμος από ΑΒΑ
Ανεμος: ΑΒΑ 11 km/h
Θερμοκρασία: 16°C
Σημείο Δρόσου: 9°C
Υγρασία: 63%
Βαρόμετρο: 1016 hPa
Clouds: Αραιές Νεφώσεις
Visibility: 10 km
Cloud details: Αραιές Νεφώσεις 762 m
2024/05/26 19:50 LGKV 261950Z 06006KT 9999 FEW025 16/09 Q1016
 
LGIO - IOANNINA - GREECE
Ενημερώθηκε: 26/05/2024 23:50

 Ανεμος από varies
Ανεμος: varies 2 km/h
Θερμοκρασία: 11°C
Σημείο Δρόσου: 11°C
Υγρασία: 100%
Βαρόμετρο: 1018 hPa
2024/05/26 20:50 LGIO 262050Z AUTO VRB01KT //// // ////// 11/11 Q1018 RE//
LGBL - BOLOS - GREECE
Ενημερώθηκε: 26/05/2024 23:50
Αραιές Νεφώσεις
Αραιές Νεφώσεις
 Ανεμος από Δ
Ανεμος: Δ 7 km/h
Θερμοκρασία: 15°C
Σημείο Δρόσου: 10°C
Υγρασία: 72%
Βαρόμετρο: 1017 hPa
Clouds: Αραιές Νεφώσεις
Visibility: 10 km
Cloud details: Αραιές Νεφώσεις 914 m
2024/05/26 20:50 LGBL 262050Z 26004KT 9999 FEW030 15/10 Q1017
 
LGMT - MITILINI - GREECE
Ενημερώθηκε: 26/05/2024 23:50
Αίθριος
Αίθριος
 Ανεμος από Β
Ανεμος: Β 7 km/h
Θερμοκρασία: 19°C
Σημείο Δρόσου: 14°C
Υγρασία: 73%
Βαρόμετρο: 1014 hPa
Περίληψη: Αίθριος
Visibility: greater than 10 km
2024/05/26 20:50 LGMT 262050Z 35004KT CAVOK 19/14 Q1014
LGAV - ATHENS - GREECE
Ενημερώθηκε: 26/05/2024 23:50
Αραιές Νεφώσεις
Αραιές Νεφώσεις
 Ανεμος από Β
Ανεμος: Β 26 km/h
Θερμοκρασία: 20°C
Σημείο Δρόσου: 11°C
Υγρασία: 56%
Βαρόμετρο: 1015 hPa
Clouds: Αραιές Νεφώσεις
Visibility: 10 km
Cloud details: Αραιές Νεφώσεις 762 m
2024/05/26 20:50 LGAV 262050Z 36014KT 9999 FEW025 20/11 Q1015 NOSIG
 
LGRP - RODOS - GREECE
Ενημερώθηκε: 26/05/2024 23:50
Αραιές Νεφώσεις
Αραιές Νεφώσεις
 Ανεμος από ΝΔ
Ανεμος: ΝΔ 11 km/h
Θερμοκρασία: 19°C
Σημείο Δρόσου: 17°C
Υγρασία: 88%
Βαρόμετρο: 1010 hPa
Clouds: Αραιές Νεφώσεις
Visibility: 10 km
Cloud details: Αραιές Νεφώσεις 610 m
2024/05/26 20:50 LGRP 262050Z 22006KT 9999 FEW020 19/17 Q1010 NOSIG
LGIR - HRAKLIO/KRITI - GREECE
Ενημερώθηκε: 26/05/2024 23:50
Μερικώς νεφελώδης
Μερικώς νεφελώδης
 Ανεμος από Δ
Ανεμος: Δ 26 km/h
Θερμοκρασία: 20°C
Σημείο Δρόσου: 15°C
Υγρασία: 73%
Βαρόμετρο: 1013 hPa
Clouds: Μερικώς νεφελώδης
Visibility: 10 km
Cloud details: Αραιές Νεφώσεις 610 m
Μερικώς νεφελώδης 2438 m
2024/05/26 20:50 LGIR 262050Z 28014KT 9999 FEW020 SCT080 20/15 Q1013 NOSIG
 
LGMK - MIKONOS - GREECE
Ενημερώθηκε: 26/05/2024 23:50
Μερικώς νεφελώδης
Μερικώς νεφελώδης
 Ανεμος από Β
Ανεμος: Β 13 km/h
Θερμοκρασία: 19°C
Σημείο Δρόσου: 14°C
Υγρασία: 73%
Βαρόμετρο: 1012 hPa
Clouds: Μερικώς νεφελώδης
Visibility: 10 km
Cloud details: Αραιές Νεφώσεις 366 m
Μερικώς νεφελώδης 914 m
2024/05/26 20:50 LGMK 262050Z 01007KT 9999 FEW012 SCT030 19/14 Q1012
LGKR - KERKIRA - GREECE
Ενημερώθηκε: 26/05/2024 23:50
Αραιές Νεφώσεις
Αραιές Νεφώσεις
 Ανεμος από calm
Ανεμος: Απνοια
Θερμοκρασία: 21°C
Σημείο Δρόσου: 17°C
Υγρασία: 78%
Βαρόμετρο: 1015 hPa
Clouds: Αραιές Νεφώσεις
Visibility: 10 km
Cloud details: Αραιές Νεφώσεις 914 m
2024/05/26 20:50 LGKR 262050Z 00000KT 9999 FEW030 21/17 Q1015 NOSIG